Time;durP1;ratioP1;P1;durP2;ratioP2;P2;SDS_P1;SDS_P2;PMS_P1;PMS_P2;Temp;Humidity;BMP_temperature;BMP_pressure;BME280_temperature;BME280_humidity;BME280_pressure;Samples;Min_cycle;Max_cycle;Signal;HPM_P1;HPM_P2
2022/04/10 00:00:39;;;;;;;18.33;5.78;;;;;;;1.45;81.42;101676.28;5050244;28;20079;-75
2022/04/10 00:03:05;;;;;;;16.40;5.00;;;;;;;1.52;82.27;101684.97;5042378;28;20432;-75
2022/04/10 00:05:30;;;;;;;22.20;6.40;;;;;;;1.59;82.20;101685.72;5045309;28;20110;-75
2022/04/10 00:07:56;;;;;;;19.33;5.95;;;;;;;1.67;82.05;101689.03;5036548;28;20021;-75
2022/04/10 00:10:21;;;;;;;16.95;6.18;;;;;;;1.73;81.62;101694.22;5042441;28;20052;-75
2022/04/10 00:12:46;;;;;;;20.00;6.13;;;;;;;1.77;81.67;101687.06;5035125;28;20047;-75
2022/04/10 00:15:12;;;;;;;23.33;7.15;;;;;;;1.81;81.31;101686.09;5050794;28;20025;-75
2022/04/10 00:17:38;;;;;;;22.92;6.97;;;;;;;1.86;81.49;101689.47;5047152;28;20112;-75
2022/04/10 00:20:05;;;;;;;19.63;6.55;;;;;;;1.84;81.27;101680.72;5041533;28;20090;-75
2022/04/10 00:22:30;;;;;;;19.70;6.43;;;;;;;1.84;81.61;101680.72;5034258;28;20022;-75
2022/04/10 00:24:55;;;;;;;19.42;7.13;;;;;;;1.81;81.47;101681.63;5042274;28;20393;-75
2022/04/10 00:27:21;;;;;;;18.55;6.32;;;;;;;1.78;81.20;101681.72;5034656;28;20055;-75
2022/04/10 00:29:46;;;;;;;19.73;6.13;;;;;;;1.78;81.35;101680.84;5041685;28;20032;-75
2022/04/10 00:32:12;;;;;;;20.40;6.88;;;;;;;1.72;81.51;101682.72;5038904;28;20048;-75
2022/04/10 00:34:37;;;;;;;16.88;5.78;;;;;;;1.68;80.91;101681.03;5039568;28;20488;-75
2022/04/10 00:37:03;;;;;;;18.58;6.35;;;;;;;1.65;81.09;101680.25;5053318;28;20027;-74
2022/04/10 00:39:28;;;;;;;20.92;6.70;;;;;;;1.60;81.24;101679.47;5052091;28;20017;-74
2022/04/10 00:41:53;;;;;;;18.02;6.63;;;;;;;1.57;81.40;101669.84;5052561;28;20116;-75
2022/04/10 00:44:19;;;;;;;20.35;8.25;;;;;;;1.52;81.03;101672.59;5041673;28;20033;-75
2022/04/10 00:46:44;;;;;;;19.92;7.15;;;;;;;1.51;81.41;101670.00;5045250;28;20035;-75
2022/04/10 00:49:10;;;;;;;22.30;7.88;;;;;;;1.49;81.42;101663.84;5048027;28;20050;-75
2022/04/10 00:51:43;;;;;;;20.15;7.25;;;;;;;1.44;81.64;101671.03;5052011;28;20037;-75
2022/04/10 00:54:15;;;;;;;20.90;7.35;;;;;;;1.42;81.75;101668.41;5051940;28;20234;-75
2022/04/10 00:56:41;;;;;;;35.83;8.85;;;;;;;1.42;81.93;101670.16;5041687;28;20033;-75
2022/04/10 00:59:07;;;;;;;20.40;7.53;;;;;;;1.41;81.96;101671.97;5043944;28;20499;-75
2022/04/10 01:01:34;;;;;;;20.20;7.53;;;;;;;1.39;82.30;101672.00;5038752;28;20092;-72
2022/04/10 01:03:59;;;;;;;26.08;7.55;;;;;;;1.36;82.01;101668.53;5045961;28;20060;-72
2022/04/10 01:06:24;;;;;;;20.08;7.18;;;;;;;1.33;82.49;101669.50;5048285;28;20521;-72
2022/04/10 01:08:50;;;;;;;21.40;7.60;;;;;;;1.31;82.12;101663.34;5034922;28;20044;-72
2022/04/10 01:11:15;;;;;;;19.02;7.22;;;;;;;1.29;83.09;101677.50;5039065;28;20145;-72
2022/04/10 01:13:41;;;;;;;21.55;8.15;;;;;;;1.31;82.73;101665.97;5043357;28;20040;-72
2022/04/10 01:16:06;;;;;;;18.40;7.22;;;;;;;1.32;83.28;101673.03;5037648;28;20080;-72
2022/04/10 01:18:32;;;;;;;21.45;8.45;;;;;;;1.34;83.45;101671.22;5042713;28;20033;-72
2022/04/10 01:21:01;;;;;;;24.02;8.07;;;;;;;1.36;83.58;101668.53;5032708;28;20104;-72
2022/04/10 01:23:27;;;;;;;24.90;8.30;;;;;;;1.42;83.94;101667.53;5043953;28;20472;-72
2022/04/10 01:25:52;;;;;;;25.15;8.60;;;;;;;1.48;83.17;101672.69;5041585;28;20032;-72
2022/04/10 01:28:18;;;;;;;21.08;8.68;;;;;;;1.52;83.34;101666.41;5038985;28;20037;-72
2022/04/10 01:30:43;;;;;;;21.60;8.20;;;;;;;1.54;83.64;101672.56;5040014;28;20029;-72
2022/04/10 01:33:09;;;;;;;20.95;7.82;;;;;;;1.56;84.09;101674.25;5046977;28;20025;-72
2022/04/10 01:35:34;;;;;;;19.48;8.90;;;;;;;1.59;83.73;101672.47;5036982;28;20025;-72
2022/04/10 01:38:00;;;;;;;23.55;8.43;;;;;;;1.62;83.27;101682.97;5034907;28;20032;-72
2022/04/10 01:40:26;;;;;;;20.92;7.68;;;;;;;1.64;82.84;101678.50;5040582;28;20064;-72
2022/04/10 01:42:51;;;;;;;20.98;8.30;;;;;;;1.66;83.61;101672.28;5049334;28;20571;-72
2022/04/10 01:45:17;;;;;;;21.00;8.57;;;;;;;1.70;83.62;101673.09;5038482;28;20025;-72
2022/04/10 01:47:42;;;;;;;22.30;8.20;;;;;;;1.70;83.42;101679.25;5063923;28;20028;-72
2022/04/10 01:50:08;;;;;;;21.63;8.70;;;;;;;1.68;83.81;101675.75;5046548;28;20036;-72
2022/04/10 01:52:33;;;;;;;20.35;8.65;;;;;;;1.67;83.53;101681.09;5049951;28;20028;-72
2022/04/10 01:54:59;;;;;;;22.70;7.72;;;;;;;1.66;83.38;101684.66;5033782;28;20037;-72
2022/04/10 01:57:24;;;;;;;22.70;9.07;;;;;;;1.61;83.12;101679.47;5041400;28;20473;-72
2022/04/10 01:59:49;;;;;;;19.83;8.45;;;;;;;1.56;82.61;101687.50;5031371;28;20037;-72
2022/04/10 02:02:15;;;;;;;21.83;8.93;;;;;;;1.54;83.35;101694.63;5033726;28;20473;-72
2022/04/10 02:04:40;;;;;;;22.30;9.32;;;;;;;1.54;83.15;101696.41;5039816;28;20033;-72
2022/04/10 02:07:05;;;;;;;21.02;8.38;;;;;;;1.50;82.41;101692.06;5049891;28;20045;-72
2022/04/10 02:09:30;;;;;;;22.80;9.05;;;;;;;1.46;82.85;101693.91;5046354;28;20045;-72
2022/04/10 02:11:56;;;;;;;24.55;9.63;;;;;;;1.40;83.08;101697.56;5037013;28;20060;-72
2022/04/10 02:14:21;;;;;;;21.48;9.10;;;;;;;1.36;82.49;101693.25;5034486;28;20044;-72
2022/04/10 02:16:46;;;;;;;23.40;8.85;;;;;;;1.31;82.70;101692.47;5060160;28;20103;-72
2022/04/10 02:19:11;;;;;;;20.30;8.27;;;;;;;1.29;82.73;101693.38;5057237;28;20459;-72
2022/04/10 02:21:37;;;;;;;23.88;9.52;;;;;;;1.21;82.77;101690.91;5049429;28;20040;-72
2022/04/10 02:24:03;;;;;;;19.85;9.00;;;;;;;1.17;82.65;101694.53;5049680;28;20077;-72
2022/04/10 02:26:28;;;;;;;21.52;9.40;;;;;;;1.12;82.92;101689.31;5041356;28;20706;-72
2022/04/10 02:28:54;;;;;;;26.85;9.45;;;;;;;1.08;83.10;101695.56;5048886;28;20036;-72
2022/04/10 02:31:19;;;;;;;19.70;7.97;;;;;;;1.02;82.61;101690.41;5047772;28;20474;-72
2022/04/10 02:33:44;;;;;;;21.35;9.23;;;;;;;0.99;83.12;101690.47;5035769;28;20032;-72
2022/04/10 02:36:10;;;;;;;24.30;8.38;;;;;;;0.95;83.04;101694.97;5037896;28;20131;-72
2022/04/10 02:38:35;;;;;;;23.80;9.25;;;;;;;0.91;82.97;101688.00;5051395;28;20029;-72
2022/04/10 02:41:00;;;;;;;24.88;8.68;;;;;;;0.88;82.94;101690.69;5048065;28;20032;-72
2022/04/10 02:43:26;;;;;;;23.92;8.30;;;;;;;0.86;82.99;101703.06;5043355;28;20056;-72
2022/04/10 02:45:51;;;;;;;20.73;8.93;;;;;;;0.83;82.91;101700.50;5041475;28;20106;-72
2022/04/10 02:48:17;;;;;;;22.85;9.05;;;;;;;0.79;82.63;101712.91;5058412;28;20065;-72
2022/04/10 02:50:42;;;;;;;21.05;9.43;;;;;;;0.75;82.84;101711.22;5042784;28;20048;-72
2022/04/10 02:53:08;;;;;;;22.42;9.93;;;;;;;0.73;83.14;101709.50;5037183;28;20038;-72
2022/04/10 02:55:33;;;;;;;21.08;8.38;;;;;;;0.71;83.12;101711.31;5034580;28;20032;-72
2022/04/10 02:57:59;;;;;;;23.23;8.57;;;;;;;0.68;83.00;101713.09;5049330;28;20060;-72
2022/04/10 03:00:24;;;;;;;21.73;9.02;;;;;;;0.63;82.92;101712.31;5033400;28;20484;-72
2022/04/10 03:02:50;;;;;;;21.83;9.02;;;;;;;0.60;82.69;101711.50;5048390;28;20074;-72
2022/04/10 03:05:15;;;;;;;20.35;7.90;;;;;;;0.58;82.80;101715.94;5047803;28;20033;-72
2022/04/10 03:07:40;;;;;;;19.45;7.72;;;;;;;0.56;82.90;101708.03;5047796;28;20124;-72
2022/04/10 03:10:06;;;;;;;21.10;8.63;;;;;;;0.57;82.89;101709.78;5033521;28;20064;-72
2022/04/10 03:12:31;;;;;;;23.63;10.15;;;;;;;0.57;82.87;101709.78;5034588;28;20510;-72
2022/04/10 03:14:57;;;;;;;21.92;9.07;;;;;;;0.58;82.97;101714.16;5039029;28;20381;-72
2022/04/10 03:17:22;;;;;;;20.48;8.63;;;;;;;0.58;82.87;101715.94;5064083;28;20115;-72
2022/04/10 03:19:47;;;;;;;20.17;8.52;;;;;;;0.55;82.94;101721.28;5044804;28;20029;-72
2022/04/10 03:22:13;;;;;;;21.33;8.38;;;;;;;0.55;82.95;101719.50;5034680;28;20025;-72
2022/04/10 03:24:38;;;;;;;19.73;8.48;;;;;;;0.54;82.90;101715.13;5038404;28;20025;-72
2022/04/10 03:27:04;;;;;;;25.52;8.65;;;;;;;0.53;82.97;101718.69;5051068;28;20025;-72
2022/04/10 03:29:29;;;;;;;21.55;9.63;;;;;;;0.53;82.96;101718.69;5040693;28;20049;-72
2022/04/10 03:31:54;;;;;;;21.27;8.98;;;;;;;0.51;83.35;101718.72;5047989;28;20471;-72
2022/04/10 03:34:20;;;;;;;21.38;8.52;;;;;;;0.50;82.86;101726.66;5039150;28;20568;-72
2022/04/10 03:36:45;;;;;;;23.45;9.10;;;;;;;0.48;82.95;101726.69;5050918;28;20048;-72
2022/04/10 03:39:10;;;;;;;23.85;8.75;;;;;;;0.45;83.07;101728.50;5042509;28;20033;-72
2022/04/10 03:41:36;;;;;;;22.25;9.07;;;;;;;0.45;83.16;101733.78;5029778;28;20420;-72
2022/04/10 03:44:01;;;;;;;23.10;9.00;;;;;;;0.46;82.93;101735.56;5031764;28;20240;-72
2022/04/10 03:46:26;;;;;;;24.33;8.25;;;;;;;0.46;83.11;101732.91;5043343;28;20040;-72
2022/04/10 03:48:51;;;;;;;21.48;8.43;;;;;;;0.46;82.65;101732.91;5041644;28;20455;-72
2022/04/10 03:51:17;;;;;;;22.83;8.90;;;;;;;0.49;83.24;101738.13;5053345;28;20031;-72
2022/04/10 03:53:42;;;;;;;21.92;9.40;;;;;;;0.49;83.43;101739.00;5034863;28;20373;-72
2022/04/10 03:56:07;;;;;;;22.83;8.80;;;;;;;0.48;82.79;101746.97;5050549;28;20095;-72
2022/04/10 03:58:33;;;;;;;22.85;8.85;;;;;;;0.44;83.58;101739.97;5051970;28;20068;-72
2022/04/10 04:00:58;;;;;;;21.45;7.32;;;;;;;0.40;82.97;101736.53;5038163;28;20481;-72
2022/04/10 04:03:24;;;;;;;22.15;7.35;;;;;;;0.39;83.46;101748.00;5044663;28;20722;-72
2022/04/10 04:05:49;;;;;;;19.35;8.05;;;;;;;0.37;83.35;101738.31;5039857;28;20029;-72
2022/04/10 04:08:17;;;;;;;20.40;8.73;;;;;;;0.37;83.33;101735.69;5042636;28;20027;-72
2022/04/10 04:10:43;;;;;;;20.27;8.68;;;;;;;0.38;83.10;101742.72;5052537;28;20049;-72
2022/04/10 04:13:08;;;;;;;21.25;8.73;;;;;;;0.41;83.37;101751.50;5031009;28;20051;-72
2022/04/10 04:15:33;;;;;;;20.23;7.53;;;;;;;0.40;83.37;101747.09;5043810;28;20066;-72
2022/04/10 04:17:59;;;;;;;23.98;9.25;;;;;;;0.43;83.16;101748.84;5038625;28;20029;-72
2022/04/10 04:20:24;;;;;;;22.65;8.20;;;;;;;0.45;83.60;101749.66;5043138;28;20103;-72
2022/04/10 04:22:49;;;;;;;21.23;8.55;;;;;;;0.45;83.46;101755.81;5035576;28;20770;-72
2022/04/10 04:25:15;;;;;;;22.65;8.13;;;;;;;0.43;83.79;101746.19;5042019;28;20501;-72
2022/04/10 04:27:40;;;;;;;20.20;7.55;;;;;;;0.42;83.27;101747.06;5034588;28;20112;-72
2022/04/10 04:30:07;;;;;;;18.50;7.10;;;;;;;0.40;83.93;101747.09;5036298;28;20025;-72
2022/04/10 04:32:33;;;;;;;24.77;8.02;;;;;;;0.40;83.49;101751.53;5036371;28;20536;-72
2022/04/10 04:34:58;;;;;;;20.80;7.90;;;;;;;0.41;83.47;101753.25;5040943;28;20056;-72
2022/04/10 04:37:24;;;;;;;21.38;7.22;;;;;;;0.43;83.29;101754.97;5052690;28;20112;-72
2022/04/10 04:39:49;;;;;;;20.83;7.95;;;;;;;0.44;83.19;101750.56;5047678;28;20124;-72
2022/04/10 04:42:14;;;;;;;20.45;6.75;;;;;;;0.42;83.37;101755.00;5053915;28;20066;-72
2022/04/10 04:44:39;;;;;;;20.15;8.07;;;;;;;0.41;83.71;101751.50;5046676;28;20551;-72
2022/04/10 04:47:05;;;;;;;19.58;7.30;;;;;;;0.39;83.55;101749.78;5052439;28;20040;-72
2022/04/10 04:49:30;;;;;;;15.30;6.43;;;;;;;0.38;82.67;101756.84;5036180;28;20153;-72
2022/04/10 04:51:56;;;;;;;18.52;7.30;;;;;;;0.39;82.92;101749.78;5052247;28;20035;-72
2022/04/10 04:54:21;;;;;;;20.40;7.78;;;;;;;0.38;82.66;101762.13;5047005;28;20025;-72
2022/04/10 04:56:47;;;;;;;19.80;7.03;;;;;;;0.39;83.44;101760.34;5034114;28;20032;-72
2022/04/10 04:59:15;;;;;;;18.05;6.65;;;;;;;0.39;83.03;101763.00;5033641;28;20040;-72
2022/04/10 05:01:41;;;;;;;19.80;7.18;;;;;;;0.40;83.31;101757.69;5046765;28;20036;-72
2022/04/10 05:04:07;;;;;;;20.33;6.82;;;;;;;0.40;83.42;101765.63;5050240;28;20495;-72
2022/04/10 05:06:33;;;;;;;17.77;7.18;;;;;;;0.39;83.61;101766.50;5052499;28;20033;-72
2022/04/10 05:08:58;;;;;;;21.75;7.13;;;;;;;0.38;83.43;101770.06;5049913;28;20027;-72
2022/04/10 05:11:23;;;;;;;20.40;7.40;;;;;;;0.40;83.28;101773.53;5051643;28;20431;-72
2022/04/10 05:13:49;;;;;;;20.92;6.30;;;;;;;0.42;83.28;101782.31;5048214;28;20040;-72
2022/04/10 05:16:14;;;;;;;18.17;6.75;;;;;;;0.45;83.90;101787.56;5040705;28;20024;-72
2022/04/10 05:18:40;;;;;;;20.20;7.03;;;;;;;0.47;83.78;101782.22;5048430;28;20633;-72
2022/04/10 05:21:05;;;;;;;19.70;6.55;;;;;;;0.49;83.19;101785.75;5051993;28;20040;-72
2022/04/10 05:23:30;;;;;;;20.08;6.82;;;;;;;0.50;82.98;101788.38;5050848;28;20033;-72
2022/04/10 05:25:56;;;;;;;24.95;7.40;;;;;;;0.52;83.26;101781.28;5035800;28;20091;-72
2022/04/10 05:28:22;;;;;;;26.85;6.85;;;;;;;0.52;83.96;101786.56;5034122;28;20029;-72
2022/04/10 05:30:47;;;;;;;18.50;6.25;;;;;;;0.55;83.08;101790.06;5037276;28;20025;-72
2022/04/10 05:33:12;;;;;;;23.10;6.70;;;;;;;0.56;83.60;101802.38;5040830;28;20033;-72
2022/04/10 05:35:38;;;;;;;18.60;6.60;;;;;;;0.59;83.81;101802.34;5048228;28;20029;-72
2022/04/10 05:38:04;;;;;;;19.73;6.82;;;;;;;0.62;84.29;101808.44;5052727;28;20120;-72
2022/04/10 05:40:30;;;;;;;20.63;8.45;;;;;;;0.65;84.86;101805.75;5051861;28;20107;-72
2022/04/10 05:42:55;;;;;;;26.13;10.13;;;;;;;0.69;85.31;101812.75;5037973;28;20111;-72
2022/04/10 05:45:21;;;;;;;21.25;8.25;;;;;;;0.76;85.18;101807.34;5035311;28;20422;-72
2022/04/10 05:47:46;;;;;;;21.45;8.15;;;;;;;0.84;85.44;101805.44;5053404;28;20029;-72
2022/04/10 05:50:12;;;;;;;20.42;7.00;;;;;;;0.90;85.88;101813.28;5037111;28;20424;-72
2022/04/10 05:52:38;;;;;;;21.42;6.68;;;;;;;0.99;86.00;101813.09;5050158;28;20028;-72
2022/04/10 05:55:05;;;;;;;15.57;5.85;;;;;;;1.07;85.53;101817.38;5032339;28;20059;-72
2022/04/10 05:57:31;;;;;;;19.90;5.90;;;;;;;1.17;86.01;101824.25;5031293;28;20639;-72
2022/04/10 05:59:56;;;;;;;19.75;6.72;;;;;;;1.25;84.82;101827.66;5045083;28;20044;-72
2022/04/10 06:02:21;;;;;;;18.10;5.78;;;;;;;1.33;84.72;101825.75;5049634;28;20071;-72
2022/04/10 06:04:46;;;;;;;20.00;6.72;;;;;;;1.40;84.60;101837.06;5034686;28;20060;-72
2022/04/10 06:07:12;;;;;;;18.17;6.10;;;;;;;1.51;85.57;101836.88;5050106;28;20032;-72
2022/04/10 06:09:37;;;;;;;17.20;6.07;;;;;;;1.63;84.45;101835.78;5042760;28;20517;-72
2022/04/10 06:12:02;;;;;;;18.85;6.20;;;;;;;1.74;84.45;101839.06;5031170;28;20047;-72
2022/04/10 06:14:27;;;;;;;19.17;6.18;;;;;;;1.83;84.27;101844.19;5045944;28;20033;-72
2022/04/10 06:16:53;;;;;;;23.80;6.38;;;;;;;1.94;84.15;101846.59;5056078;28;20064;-72
2022/04/10 06:19:19;;;;;;;21.80;7.88;;;;;;;2.06;84.52;101853.41;5034786;28;20485;-72
2022/04/10 06:21:44;;;;;;;21.67;7.30;;;;;;;2.17;83.97;101853.19;5033208;28;20040;-72
2022/04/10 06:24:10;;;;;;;19.63;7.30;;;;;;;2.27;83.91;101863.56;5030764;28;20033;-72
2022/04/10 06:26:35;;;;;;;19.05;6.68;;;;;;;2.37;83.82;101864.22;5030986;28;20401;-72
2022/04/10 06:29:00;;;;;;;18.20;6.22;;;;;;;2.49;83.95;101864.84;5031735;28;20045;-72
2022/04/10 06:31:26;;;;;;;21.75;7.25;;;;;;;2.58;83.75;101862.84;5032938;28;20037;-72
2022/04/10 06:33:51;;;;;;;20.05;6.90;;;;;;;2.66;83.63;101867.09;5045658;28;20033;-72
2022/04/10 06:36:16;;;;;;;22.77;6.90;;;;;;;2.74;83.68;101870.47;5039650;28;20439;-72
2022/04/10 06:38:42;;;;;;;18.27;7.57;;;;;;;2.87;84.18;101873.66;5047957;28;20040;-72
2022/04/10 06:41:07;;;;;;;21.80;8.45;;;;;;;2.97;83.64;101870.75;5048722;28;20029;-72
2022/04/10 06:43:32;;;;;;;23.10;9.13;;;;;;;3.06;83.29;101882.94;5044766;28;20032;-72
2022/04/10 06:45:58;;;;;;;21.23;7.95;;;;;;;3.17;84.26;101871.16;5049651;28;20142;-72
2022/04/10 06:48:23;;;;;;;24.17;9.20;;;;;;;3.25;83.50;101883.34;5067292;28;20047;-72
2022/04/10 06:50:49;;;;;;;21.38;7.90;;;;;;;3.38;83.18;101883.84;5038801;28;20032;-72
2022/04/10 06:53:15;;;;;;;21.95;7.47;;;;;;;3.46;82.46;101876.56;5049512;28;20039;-72
2022/04/10 06:55:40;;;;;;;21.73;7.97;;;;;;;3.58;83.06;101885.13;5030611;28;20817;-72
2022/04/10 06:58:05;;;;;;;20.77;7.55;;;;;;;3.69;82.19;101885.72;5032611;28;20041;-72
2022/04/10 07:00:32;;;;;;;19.17;7.38;;;;;;;3.79;81.72;101895.19;5040670;28;20037;-72
2022/04/10 07:02:57;;;;;;;19.77;8.00;;;;;;;3.87;81.33;101891.44;5049696;28;20437;-72
2022/04/10 07:05:23;;;;;;;20.90;7.22;;;;;;;3.95;81.06;101897.38;5033392;28;20030;-72
2022/04/10 07:07:48;;;;;;;23.20;8.27;;;;;;;4.03;80.90;101903.38;5049141;28;20056;-72
2022/04/10 07:10:14;;;;;;;20.23;7.78;;;;;;;4.10;81.05;101898.72;5044049;28;20049;-72
2022/04/10 07:12:39;;;;;;;24.23;8.38;;;;;;;4.17;81.19;101905.59;5050165;28;20036;-72
2022/04/10 07:15:05;;;;;;;22.42;8.88;;;;;;;4.22;80.08;101902.81;5046821;28;20025;-72
2022/04/10 07:17:30;;;;;;;22.13;9.52;;;;;;;4.28;80.67;101897.31;5047530;28;20045;-72
2022/04/10 07:19:55;;;;;;;22.75;8.38;;;;;;;4.33;80.75;101895.38;5047445;28;20025;-72
2022/04/10 07:25:05;;;;;;;23.00;8.77;;;;;;;4.47;80.20;101903.81;5043316;28;20051;-72
2022/04/10 07:27:31;;;;;;;20.67;8.48;;;;;;;4.55;80.53;101906.22;5047242;28;20037;-72
2022/04/10 07:29:56;;;;;;;22.85;9.02;;;;;;;4.63;80.13;101892.69;5036395;28;20108;-72
2022/04/10 07:32:21;;;;;;;22.55;8.90;;;;;;;4.69;80.32;101903.16;5042546;28;20021;-72
2022/04/10 07:34:46;;;;;;;21.33;8.52;;;;;;;4.76;79.85;101904.69;5035102;28;20429;-72
2022/04/10 07:37:12;;;;;;;22.30;8.63;;;;;;;4.81;79.44;101901.88;5031253;28;20036;-72
2022/04/10 07:39:37;;;;;;;20.48;6.22;;;;;;;4.90;77.19;101912.22;5036953;28;20068;-72
2022/04/10 07:42:03;;;;;;;22.73;6.90;;;;;;;4.99;78.67;101913.72;5032741;28;20022;-72
2022/04/10 07:44:28;;;;;;;19.98;7.05;;;;;;;5.05;76.94;101910.84;5049346;28;20501;-72
2022/04/10 07:49:38;;;;;;;15.32;4.80;;;;;;;5.19;75.61;101923.72;5043339;28;20043;-74
2022/04/10 07:52:03;;;;;;;20.80;6.32;;;;;;;5.29;76.43;101930.50;5035422;28;20430;-72
2022/04/10 07:54:28;;;;;;;16.33;4.95;;;;;;;5.35;75.34;101929.41;5048700;28;20481;-72
2022/04/10 07:56:54;;;;;;;17.85;5.70;;;;;;;5.40;76.09;101924.78;5049512;28;20052;-72
2022/04/10 07:59:19;;;;;;;19.27;5.47;;;;;;;5.48;75.82;101929.88;5049320;28;20021;-72
2022/04/10 08:01:44;;;;;;;15.27;4.70;;;;;;;5.53;74.51;101939.44;5050799;28;20021;-73
2022/04/10 08:04:10;;;;;;;18.75;5.85;;;;;;;5.60;73.17;101943.63;5050937;28;20032;-72
2022/04/10 08:06:35;;;;;;;17.02;5.07;;;;;;;5.67;73.52;101948.78;5049551;28;20036;-74
2022/04/10 08:09:00;;;;;;;18.92;5.80;;;;;;;5.75;74.50;101954.69;5048939;28;20033;-74
2022/04/10 08:11:25;;;;;;;19.58;5.28;;;;;;;5.83;73.33;101951.75;5049266;28;20033;-73
2022/04/10 08:13:51;;;;;;;17.63;4.63;;;;;;;5.87;71.31;101956.94;5050691;28;20033;-75
2022/04/10 08:16:16;;;;;;;23.55;5.72;;;;;;;5.92;71.98;101949.63;5045184;28;20029;-73
2022/04/10 08:18:41;;;;;;;13.27;4.38;;;;;;;6.01;71.62;101963.59;5038464;28;20055;-73
2022/04/10 08:21:07;;;;;;;14.70;4.03;;;;;;;6.08;70.06;101957.13;5032362;28;20040;-73
2022/04/10 08:23:33;;;;;;;13.57;3.75;;;;;;;6.20;70.88;101958.47;5047248;28;20381;-73
2022/04/10 08:25:58;;;;;;;12.93;3.60;;;;;;;6.26;69.92;101956.41;5032762;28;20075;-73
2022/04/10 08:28:23;;;;;;;14.38;4.40;;;;;;;6.34;68.59;101963.28;5030646;28;20030;-73
2022/04/10 08:30:49;;;;;;;13.00;3.90;;;;;;;6.45;67.28;101955.72;5035423;28;20029;-74
2022/04/10 08:33:14;;;;;;;9.40;2.70;;;;;;;6.53;67.00;101950.97;5045826;28;20026;-74
2022/04/10 08:35:39;;;;;;;9.73;3.10;;;;;;;6.65;65.66;101954.97;5043050;28;20024;-74
2022/04/10 08:38:05;;;;;;;14.50;3.75;;;;;;;6.74;64.11;101959.94;5041149;28;20048;-74
2022/04/10 08:40:32;;;;;;;12.23;3.25;;;;;;;6.77;64.11;101964.31;5046352;28;20021;-74
2022/04/10 08:43:00;;;;;;;15.27;3.65;;;;;;;6.75;63.45;101963.47;5062093;28;20033;-74
2022/04/10 08:45:26;;;;;;;14.10;3.45;;;;;;;6.77;63.95;101964.31;5052850;28;20468;-74
2022/04/10 08:47:52;;;;;;;13.40;3.38;;;;;;;6.78;62.60;101971.41;5058282;28;20036;-74
2022/04/10 08:50:18;;;;;;;11.80;3.13;;;;;;;6.78;63.23;101971.41;5035349;28;20029;-74
2022/04/10 08:52:44;;;;;;;11.52;2.50;;;;;;;6.81;63.72;101973.94;5053460;28;20027;-74
2022/04/10 08:55:10;;;;;;;13.60;3.05;;;;;;;6.83;64.24;101967.59;5052378;28;20029;-74
2022/04/10 08:57:35;;;;;;;7.65;2.63;;;;;;;6.87;63.80;101972.81;5053617;28;20025;-73
2022/04/10 09:00:01;;;;;;;10.70;2.95;;;;;;;6.88;64.76;101977.22;5039053;28;20033;-73
2022/04/10 09:02:26;;;;;;;10.10;3.05;;;;;;;6.90;66.66;101978.06;5052833;28;20112;-74
2022/04/10 09:04:52;;;;;;;13.93;3.92;;;;;;;6.87;66.82;101979.03;5047502;28;20057;-73
2022/04/10 09:07:17;;;;;;;13.98;3.95;;;;;;;6.84;68.01;101979.16;5036319;28;20127;-73
2022/04/10 09:09:52;;;;;;;17.40;4.15;;;;;;;6.81;68.53;101985.50;5053145;28;20076;-73
2022/04/10 09:12:18;;;;;;;16.67;4.05;;;;;;;6.79;69.16;101992.72;5053167;28;20032;-73
2022/04/10 09:14:43;;;;;;;17.73;4.03;;;;;;;6.84;68.68;101992.53;5053229;28;20017;-71
2022/04/10 09:17:17;;;;;;;11.93;3.75;;;;;;;6.91;69.15;101990.47;5057738;28;20739;-72
2022/04/10 09:19:48;;;;;;;14.68;4.03;;;;;;;6.92;67.91;101986.88;5053210;28;20396;-73
2022/04/10 09:22:22;;;;;;;17.15;4.07;;;;;;;6.86;66.35;101985.31;5053056;28;20021;-73
2022/04/10 09:25:11;;;;;;;11.65;3.90;;;;;;;6.87;67.70;101983.50;5052927;28;20024;-73
2022/04/10 09:27:40;;;;;;;22.17;4.22;;;;;;;6.89;65.42;101993.19;5053028;28;20021;-73
2022/04/10 09:30:14;;;;;;;10.70;3.08;;;;;;;6.98;66.13;101983.94;5051163;28;20602;-76
2022/04/10 09:32:51;;;;;;;9.82;3.13;;;;;;;7.06;66.04;101984.53;5043190;28;20048;-75
2022/04/10 09:35:18;;;;;;;16.08;3.70;;;;;;;7.15;64.86;101989.50;5037326;28;20041;-74
2022/04/10 09:37:51;;;;;;;9.57;3.00;;;;;;;7.24;63.36;101977.53;5031352;28;20025;-74
2022/04/10 09:40:30;;;;;;;9.75;2.95;;;;;;;7.29;63.16;101980.91;5031571;28;20029;-75
2022/04/10 09:43:05;;;;;;;7.35;2.70;;;;;;;7.31;62.45;101984.38;5031645;28;20038;-74
2022/04/10 09:45:41;;;;;;;12.38;3.17;;;;;;;7.38;62.04;101984.13;5037549;28;20040;-74
2022/04/10 09:48:27;;;;;;;11.40;2.97;;;;;;;7.44;62.23;101974.06;5051461;28;20444;-74
2022/04/10 09:50:58;;;;;;;9.45;2.83;;;;;;;7.51;61.82;101983.56;5042362;28;20037;-74
2022/04/10 09:53:23;;;;;;;12.85;3.70;;;;;;;7.59;63.01;101980.56;5062442;28;20025;-74
2022/04/10 09:55:55;;;;;;;10.98;3.22;;;;;;;7.64;61.54;101983.91;5038093;28;20481;-74
2022/04/10 09:58:21;;;;;;;7.93;2.55;;;;;;;7.68;57.85;101987.31;5032357;28;20049;-74
2022/04/10 10:00:47;;;;;;;8.10;2.58;;;;;;;7.74;58.10;101978.16;5032697;28;20025;-74
2022/04/10 10:03:14;;;;;;;7.03;2.45;;;;;;;7.81;56.41;101976.97;5032583;28;20021;-75
2022/04/10 10:05:40;;;;;;;11.73;2.80;;;;;;;7.92;56.27;101982.72;5030960;28;20116;-74
2022/04/10 10:08:07;;;;;;;13.43;3.10;;;;;;;7.99;55.59;101981.47;5034708;28;20116;-74
2022/04/10 10:10:34;;;;;;;15.05;3.38;;;;;;;8.02;53.48;101972.44;5038887;28;20095;-75
2022/04/10 10:13:02;;;;;;;13.68;3.13;;;;;;;8.11;54.31;101976.53;5043159;28;20083;-75
2022/04/10 10:15:27;;;;;;;12.82;3.03;;;;;;;8.15;54.35;101976.31;5039391;28;20069;-75
2022/04/10 10:17:53;;;;;;;9.57;3.08;;;;;;;8.22;55.31;101971.56;5040868;28;20083;-74
2022/04/10 10:20:20;;;;;;;13.07;3.28;;;;;;;8.32;57.29;101977.38;5040806;28;20500;-76
2022/04/10 10:22:46;;;;;;;13.80;3.88;;;;;;;8.40;56.20;101970.72;5031487;28;20041;-74
2022/04/10 10:25:17;;;;;;;11.27;3.35;;;;;;;8.49;58.74;101971.25;5041013;28;20028;-74
2022/04/10 10:28:37;;;;;;;10.43;2.78;;;;;;;8.52;55.71;101963.06;5050172;28;20060;-74
2022/04/10 10:31:20;;;;;;;11.57;3.05;;;;;;;8.49;53.33;101964.13;5035203;28;20080;-74
2022/04/10 10:33:51;;;;;;;10.43;3.15;;;;;;;8.51;54.22;101964.03;5047599;28;20579;-74
2022/04/10 10:36:23;;;;;;;11.70;3.35;;;;;;;8.56;54.50;101959.31;5047628;28;20063;-74
2022/04/10 10:38:52;;;;;;;6.65;2.70;;;;;;;8.54;52.07;101955.84;5045871;28;20048;-74
2022/04/10 10:41:18;;;;;;;13.35;3.30;;;;;;;8.49;54.62;101958.75;5027375;28;20045;-74
2022/04/10 10:43:44;;;;;;;10.40;3.28;;;;;;;8.46;55.57;101960.69;5032051;28;20040;-74
2022/04/10 10:46:20;;;;;;;10.65;3.30;;;;;;;8.46;55.29;101966.03;5044484;28;20161;-74
2022/04/10 10:48:46;;;;;;;11.77;3.10;;;;;;;8.43;54.30;101960.81;5034662;28;20060;-77
2022/04/10 10:51:11;;;;;;;10.93;2.88;;;;;;;8.44;54.81;101968.81;5029828;28;20071;-77
2022/04/10 10:53:45;;;;;;;11.02;3.45;;;;;;;8.49;54.30;101964.13;5038190;28;20040;-72
2022/04/10 10:56:29;;;;;;;8.77;2.60;;;;;;;8.53;55.17;101964.81;5047444;28;20454;-73
2022/04/10 10:58:55;;;;;;;12.50;3.55;;;;;;;8.62;53.98;101963.53;5016556;28;20129;-73
2022/04/10 11:01:28;;;;;;;12.57;3.67;;;;;;;8.65;51.83;101971.41;5028918;28;20088;-73
2022/04/10 11:04:03;;;;;;;8.07;2.72;;;;;;;8.67;53.35;101961.50;5019316;28;20040;-73
2022/04/10 11:06:43;;;;;;;12.55;3.60;;;;;;;8.71;51.93;101958.59;5031422;28;20504;-73
2022/04/10 11:09:19;;;;;;;10.85;3.50;;;;;;;8.80;52.82;101956.41;5031023;28;20124;-73
2022/04/10 11:11:45;;;;;;;12.45;3.33;;;;;;;8.91;52.57;101964.81;5030119;28;20033;-73
2022/04/10 11:14:33;;;;;;;12.25;3.70;;;;;;;9.04;52.53;101960.59;5030170;28;20046;-73
2022/04/10 11:17:19;;;;;;;10.93;3.60;;;;;;;9.05;52.59;101956.97;5054453;28;20119;-73
2022/04/10 11:19:47;;;;;;;13.63;3.80;;;;;;;9.05;53.72;101956.09;5064422;28;20125;-73
2022/04/10 11:22:17;;;;;;;12.00;3.72;;;;;;;9.02;53.62;101957.13;5040700;28;20435;-73
2022/04/10 11:24:43;;;;;;;6.85;2.90;;;;;;;9.03;54.63;101955.28;5045988;28;20028;-73
2022/04/10 11:27:13;;;;;;;12.20;4.03;;;;;;;9.03;55.51;101964.19;5035394;28;20068;-73
2022/04/10 11:29:51;;;;;;;12.40;4.00;;;;;;;9.09;53.54;101946.94;5045000;28;20036;-74